Time;durP1;ratioP1;P1;durP2;ratioP2;P2;SDS_P1;SDS_P2;PMS_P1;PMS_P2;Temp;Humidity;BMP_temperature;BMP_pressure;BME280_temperature;BME280_humidity;BME280_pressure;Samples;Min_cycle;Max_cycle;Signal;HPM_P1;HPM_P2
2023/05/05 00:01:22;;;;;;;0.10;0.10;;;18.80;99.90;;;;;;5094467;28;20039;-88
2023/05/05 00:03:48;;;;;;;0.00;0.00;;;18.90;99.90;;;;;;5096222;28;20024;-87
2023/05/05 00:06:14;;;;;;;0.20;0.20;;;18.90;99.90;;;;;;5096782;28;20115;-87
2023/05/05 00:08:40;;;;;;;0.20;0.20;;;18.80;99.90;;;;;;5096411;28;20032;-88
2023/05/05 00:11:05;;;;;;;0.00;0.00;;;18.80;99.90;;;;;;5094465;28;20028;-88
2023/05/05 00:13:31;;;;;;;0.05;0.05;;;18.80;99.90;;;;;;5096605;28;20031;-87
2023/05/05 00:15:57;;;;;;;0.10;0.10;;;18.80;99.90;;;;;;5096263;28;20099;-87
2023/05/05 00:18:22;;;;;;;0.00;0.00;;;18.80;99.90;;;;;;5095069;28;20043;-87
2023/05/05 00:20:48;;;;;;;0.75;0.65;;;18.80;99.90;;;;;;5095911;28;20032;-87
2023/05/05 00:23:15;;;;;;;0.10;0.10;;;18.60;99.90;;;;;;5096027;28;20024;-87
2023/05/05 00:25:40;;;;;;;0.22;0.08;;;18.70;99.90;;;;;;5096023;28;20375;-87
2023/05/05 00:28:06;;;;;;;0.05;0.05;;;18.50;99.90;;;;;;5096025;28;20027;-87
2023/05/05 00:30:33;;;;;;;0.15;0.15;;;18.60;99.90;;;;;;5094597;28;20024;-87
2023/05/05 00:32:59;;;;;;;0.00;0.00;;;18.50;99.90;;;;;;5095853;28;20028;-87
2023/05/05 00:35:25;;;;;;;0.10;0.10;;;18.50;99.90;;;;;;5095928;28;20027;-87
2023/05/05 00:37:51;;;;;;;0.10;0.10;;;18.40;99.90;;;;;;5096223;28;20492;-87
2023/05/05 00:40:17;;;;;;;0.45;0.30;;;18.20;99.90;;;;;;5095348;28;20123;-87
2023/05/05 00:42:45;;;;;;;0.00;0.00;;;18.20;99.90;;;;;;5095611;28;20464;-88
2023/05/05 00:45:13;;;;;;;0.38;0.20;;;18.20;99.90;;;;;;5095588;28;20055;-87
2023/05/05 00:47:41;;;;;;;0.10;0.10;;;18.00;99.90;;;;;;5095915;28;20031;-87
2023/05/05 00:50:08;;;;;;;0.00;0.00;;;18.00;99.90;;;;;;5095459;28;20031;-88
2023/05/05 00:52:36;;;;;;;2.25;0.45;;;17.80;99.90;;;;;;5095602;28;20089;-87
2023/05/05 00:55:03;;;;;;;0.00;0.00;;;17.70;99.90;;;;;;5095100;28;20458;-88
2023/05/05 00:57:29;;;;;;;0.10;0.10;;;17.70;99.90;;;;;;5095904;28;20422;-87
2023/05/05 00:59:56;;;;;;;0.10;0.10;;;18.00;99.90;;;;;;5095202;28;20107;-88
2023/05/05 01:02:21;;;;;;;0.10;0.10;;;18.10;99.90;;;;;;5095271;28;20043;-87
2023/05/05 01:04:47;;;;;;;0.00;0.00;;;17.90;99.90;;;;;;5095251;28;20524;-87
2023/05/05 01:07:32;;;;;;;0.10;0.10;;;18.00;99.90;;;;;;5095222;28;20454;-88
2023/05/05 01:10:23;;;;;;;0.10;0.10;;;18.10;99.90;;;;;;5095188;28;20024;-87
2023/05/05 01:13:01;;;;;;;0.10;0.10;;;18.30;99.90;;;;;;5095040;28;20039;-87
2023/05/05 01:15:36;;;;;;;0.28;0.20;;;18.30;99.90;;;;;;5095225;28;20059;-87
2023/05/05 01:18:20;;;;;;;0.10;0.10;;;18.30;99.90;;;;;;5094684;28;20042;-87
2023/05/05 01:20:45;;;;;;;0.22;0.22;;;18.10;99.90;;;;;;5094670;28;20040;-87
2023/05/05 01:23:29;;;;;;;0.28;0.15;;;18.00;99.90;;;;;;5094430;28;20022;-87
2023/05/05 01:26:12;;;;;;;0.10;0.10;;;17.90;99.90;;;;;;5095243;28;20032;-87
2023/05/05 01:29:10;;;;;;;0.10;0.10;;;17.90;99.90;;;;;;5094966;28;20035;-87
2023/05/05 01:31:42;;;;;;;0.25;0.08;;;17.90;99.90;;;;;;4993452;28;20065;-87
2023/05/05 01:34:12;;;;;;;0.00;0.00;;;17.90;99.90;;;;;;4993182;28;20030;-87
2023/05/05 01:36:48;;;;;;;0.10;0.10;;;18.00;99.90;;;;;;4992851;28;20033;-87
2023/05/05 01:39:15;;;;;;;0.25;0.13;;;18.00;99.90;;;;;;4992787;28;20034;-88
2023/05/05 01:41:44;;;;;;;0.20;0.20;;;18.00;99.90;;;;;;4992815;28;20034;-88
2023/05/05 01:44:12;;;;;;;0.00;0.00;;;18.00;99.90;;;;;;4993176;28;20398;-87
2023/05/05 01:46:38;;;;;;;0.00;0.00;;;18.00;99.90;;;;;;4992976;28;20036;-87
2023/05/05 01:49:05;;;;;;;0.10;0.10;;;17.90;99.90;;;;;;4992595;28;20101;-87
2023/05/05 01:51:32;;;;;;;0.10;0.10;;;17.90;99.90;;;;;;4992417;28;20057;-87
2023/05/05 01:54:02;;;;;;;0.00;0.00;;;17.70;99.90;;;;;;4992744;28;20034;-87
2023/05/05 01:56:29;;;;;;;0.10;0.10;;;17.70;99.90;;;;;;4992679;28;20121;-88
2023/05/05 01:58:56;;;;;;;0.00;0.00;;;17.70;99.90;;;;;;4993018;28;20030;-88
2023/05/05 02:01:24;;;;;;;0.00;0.00;;;17.70;99.90;;;;;;4992384;28;20111;-87
2023/05/05 02:03:52;;;;;;;0.00;0.00;;;17.70;99.90;;;;;;4992467;28;20065;-87
2023/05/05 02:06:19;;;;;;;0.00;0.00;;;17.70;99.90;;;;;;5003325;28;20052;-87
2023/05/05 02:08:47;;;;;;;0.10;0.10;;;17.70;99.90;;;;;;5073027;28;20487;-87
2023/05/05 02:11:17;;;;;;;0.00;0.00;;;17.80;99.90;;;;;;5073704;28;20024;-88
2023/05/05 02:13:44;;;;;;;0.10;0.10;;;17.70;99.90;;;;;;5073497;28;20477;-87
2023/05/05 02:16:11;;;;;;;0.10;0.10;;;17.80;99.90;;;;;;5074107;28;20103;-88
2023/05/05 02:18:38;;;;;;;0.10;0.10;;;17.70;99.90;;;;;;5073431;28;20040;-87
2023/05/05 02:21:04;;;;;;;0.00;0.00;;;17.70;99.90;;;;;;5087075;28;20503;-87
2023/05/05 02:23:30;;;;;;;0.10;0.10;;;17.70;99.90;;;;;;5093556;28;20498;-87
2023/05/05 02:26:02;;;;;;;0.20;0.20;;;17.70;99.90;;;;;;5093185;28;20047;-88
2023/05/05 02:28:46;;;;;;;0.10;0.10;;;17.60;99.90;;;;;;5093947;28;20021;-87
2023/05/05 02:31:15;;;;;;;0.20;0.20;;;17.60;99.90;;;;;;5093726;28;20073;-85
2023/05/05 02:33:43;;;;;;;0.15;0.15;;;17.60;99.90;;;;;;5092224;28;20016;-85
2023/05/05 02:36:20;;;;;;;0.10;0.10;;;17.70;99.90;;;;;;5093138;28;20479;-87
2023/05/05 02:38:51;;;;;;;0.00;0.00;;;17.70;99.90;;;;;;5093791;28;20518;-87
2023/05/05 02:41:19;;;;;;;0.00;0.00;;;17.50;99.90;;;;;;5093311;28;20030;-85
2023/05/05 02:43:47;;;;;;;0.15;0.15;;;17.50;99.90;;;;;;5093438;28;20028;-85
2023/05/05 02:46:14;;;;;;;0.00;0.00;;;17.40;99.90;;;;;;5093245;28;20491;-85
2023/05/05 02:48:40;;;;;;;0.00;0.00;;;17.50;99.90;;;;;;5093235;28;20403;-87
2023/05/05 02:51:06;;;;;;;0.10;0.10;;;17.40;99.90;;;;;;5092792;28;20027;-86
2023/05/05 02:53:32;;;;;;;0.15;0.15;;;17.50;99.90;;;;;;5093414;28;20032;-87
2023/05/05 02:56:13;;;;;;;0.10;0.10;;;17.50;99.90;;;;;;5092934;28;20027;-87
2023/05/05 02:59:03;;;;;;;0.00;0.00;;;17.50;99.90;;;;;;5092560;28;20437;-87
2023/05/05 03:01:52;;;;;;;0.15;0.10;;;17.40;99.90;;;;;;5093081;28;20036;-88
2023/05/05 03:04:26;;;;;;;0.35;0.25;;;17.30;99.90;;;;;;5092752;28;20095;-88
2023/05/05 03:06:57;;;;;;;0.10;0.10;;;17.40;99.90;;;;;;5093428;28;20514;-85
2023/05/05 03:10:04;;;;;;;0.05;0.05;;;17.30;99.90;;;;;;5093021;28;20043;-87
2023/05/05 03:12:48;;;;;;;0.10;0.10;;;17.30;99.90;;;;;;5079237;28;20083;-87
2023/05/05 03:15:14;;;;;;;0.00;0.00;;;17.20;99.90;;;;;;5093144;28;20035;-88
2023/05/05 03:17:42;;;;;;;0.00;0.00;;;17.10;99.90;;;;;;5091724;28;20115;-88
2023/05/05 03:20:11;;;;;;;0.15;0.15;;;17.20;99.90;;;;;;5092482;28;20527;-88
2023/05/05 03:22:37;;;;;;;0.10;0.10;;;17.10;99.90;;;;;;5092903;28;20472;-87
2023/05/05 03:25:03;;;;;;;0.10;0.10;;;17.10;99.90;;;;;;5092706;28;20020;-88
2023/05/05 03:27:29;;;;;;;0.28;0.20;;;17.00;99.90;;;;;;5092842;28;20521;-87
2023/05/05 03:29:55;;;;;;;0.10;0.10;;;17.00;99.90;;;;;;5091883;28;20028;-87
2023/05/05 03:32:22;;;;;;;0.00;0.00;;;17.00;99.90;;;;;;5092696;28;20102;-88
2023/05/05 03:34:48;;;;;;;0.00;0.00;;;17.00;99.90;;;;;;5092196;28;20071;-87
2023/05/05 03:37:14;;;;;;;0.20;0.20;;;16.90;99.90;;;;;;5097087;28;20056;-87
2023/05/05 03:39:40;;;;;;;0.65;0.22;;;16.80;99.90;;;;;;5096806;28;20036;-88
2023/05/05 03:42:05;;;;;;;0.43;0.20;;;16.90;99.90;;;;;;5096883;28;20511;-88
2023/05/05 03:44:31;;;;;;;0.10;0.10;;;16.80;99.90;;;;;;5096700;28;20505;-87
2023/05/05 03:46:57;;;;;;;0.00;0.00;;;16.80;99.90;;;;;;5096533;28;20035;-85
2023/05/05 03:49:23;;;;;;;0.15;0.15;;;16.70;99.90;;;;;;5096610;28;20020;-87
2023/05/05 03:51:48;;;;;;;0.10;0.10;;;16.80;99.90;;;;;;5096567;28;20024;-86
2023/05/05 03:54:14;;;;;;;0.10;0.10;;;16.60;99.90;;;;;;5096600;28;20047;-87
2023/05/05 03:56:40;;;;;;;0.10;0.10;;;16.60;99.90;;;;;;5096886;28;20028;-88
2023/05/05 03:59:05;;;;;;;0.00;0.00;;;16.50;99.90;;;;;;5096367;28;20143;-85
2023/05/05 04:01:31;;;;;;;0.43;0.20;;;16.30;99.90;;;;;;5096620;28;20038;-85
2023/05/05 04:03:57;;;;;;;0.20;0.20;;;16.30;99.90;;;;;;5095916;28;20464;-87
2023/05/05 04:06:23;;;;;;;0.00;0.00;;;16.00;99.90;;;;;;5096587;28;20103;-88
2023/05/05 04:08:48;;;;;;;0.17;0.10;;;16.10;99.90;;;;;;5096918;28;20472;-87
2023/05/05 04:11:14;;;;;;;0.10;0.10;;;16.10;99.90;;;;;;5096231;28;20024;-87
2023/05/05 04:13:40;;;;;;;0.00;0.00;;;16.10;99.90;;;;;;5096273;28;20048;-87
2023/05/05 04:16:07;;;;;;;0.10;0.10;;;16.10;99.90;;;;;;5095021;28;20031;-87
2023/05/05 04:18:33;;;;;;;0.10;0.10;;;16.00;99.90;;;;;;5095809;28;20487;-87
2023/05/05 04:20:58;;;;;;;0.00;0.00;;;16.00;99.90;;;;;;5096305;28;20067;-88
2023/05/05 04:23:24;;;;;;;0.10;0.10;;;15.90;99.90;;;;;;5095235;28;20134;-87
2023/05/05 04:25:50;;;;;;;0.00;0.00;;;15.80;99.90;;;;;;5094960;28;20039;-88
2023/05/05 04:28:15;;;;;;;0.10;0.10;;;15.90;99.90;;;;;;5096282;28;20024;-88
2023/05/05 04:30:41;;;;;;;0.13;0.13;;;15.80;99.90;;;;;;5095631;28;20035;-87
2023/05/05 04:33:07;;;;;;;0.00;0.00;;;15.80;99.90;;;;;;5096338;28;20047;-87
2023/05/05 04:35:32;;;;;;;0.10;0.10;;;15.80;99.90;;;;;;5095985;28;20025;-87
2023/05/05 04:37:58;;;;;;;0.10;0.10;;;15.90;99.90;;;;;;5095877;28;20369;-86
2023/05/05 04:40:25;;;;;;;0.08;0.08;;;15.80;99.90;;;;;;5096106;28;20043;-86
2023/05/05 04:42:51;;;;;;;0.00;0.00;;;15.80;99.90;;;;;;5096444;28;20027;-87
2023/05/05 04:45:16;;;;;;;0.22;0.22;;;15.90;99.90;;;;;;5095335;28;20028;-87
2023/05/05 04:47:42;;;;;;;0.10;0.10;;;15.80;99.90;;;;;;5094660;28;20024;-87
2023/05/05 04:50:08;;;;;;;0.10;0.10;;;15.80;99.90;;;;;;5094371;28;20036;-88
2023/05/05 04:52:34;;;;;;;0.05;0.05;;;15.80;99.90;;;;;;5095943;28;20107;-87
2023/05/05 04:55:00;;;;;;;0.52;0.30;;;15.70;99.90;;;;;;5094233;28;20116;-87
2023/05/05 04:57:26;;;;;;;0.00;0.00;;;15.70;99.90;;;;;;5095758;28;20020;-88
2023/05/05 04:59:51;;;;;;;0.10;0.10;;;15.80;99.90;;;;;;5094849;28;20035;-86
2023/05/05 05:02:17;;;;;;;0.08;0.08;;;15.90;99.90;;;;;;5095819;28;20020;-87
2023/05/05 05:04:42;;;;;;;0.10;0.10;;;16.10;99.90;;;;;;5095282;28;20430;-87
2023/05/05 05:07:08;;;;;;;0.08;0.08;;;16.10;99.90;;;;;;5094002;28;20024;-87
2023/05/05 05:09:34;;;;;;;0.10;0.10;;;16.00;99.90;;;;;;5095266;28;20024;-87
2023/05/05 05:12:01;;;;;;;0.17;0.17;;;16.00;99.90;;;;;;5093835;28;20123;-87
2023/05/05 05:14:35;;;;;;;0.00;0.00;;;16.10;99.90;;;;;;5095081;28;20016;-88
2023/05/05 05:17:01;;;;;;;0.00;0.00;;;16.20;99.90;;;;;;5095062;28;20032;-88
2023/05/05 05:19:27;;;;;;;0.30;0.10;;;16.20;99.90;;;;;;5094866;28;20507;-87
2023/05/05 05:21:53;;;;;;;0.28;0.25;;;16.30;99.90;;;;;;5094176;28;20411;-87
2023/05/05 05:24:19;;;;;;;0.20;0.20;;;16.20;99.90;;;;;;5095121;28;20016;-87
2023/05/05 05:26:44;;;;;;;0.20;0.20;;;16.40;99.90;;;;;;5093376;28;20047;-87
2023/05/05 05:29:10;;;;;;;0.40;0.40;;;16.50;99.90;;;;;;5094459;28;20050;-87
2023/05/05 05:31:36;;;;;;;0.00;0.00;;;16.60;99.90;;;;;;5094680;28;20038;-87
2023/05/05 05:34:01;;;;;;;0.20;0.20;;;16.60;99.90;;;;;;5093412;28;20031;-87
2023/05/05 05:36:27;;;;;;;0.30;0.30;;;16.60;99.90;;;;;;5094600;28;20034;-87
2023/05/05 05:38:52;;;;;;;0.52;0.35;;;16.60;99.90;;;;;;5094821;28;20028;-88
2023/05/05 05:41:18;;;;;;;0.08;0.08;;;16.50;99.90;;;;;;5094372;28;20035;-87
2023/05/05 05:43:44;;;;;;;0.45;0.45;;;16.60;99.90;;;;;;5092792;28;20024;-87
2023/05/05 05:46:10;;;;;;;0.10;0.10;;;16.60;99.90;;;;;;5094488;28;20107;-87
2023/05/05 05:48:35;;;;;;;0.00;0.00;;;16.60;99.90;;;;;;5093142;28;20559;-88
2023/05/05 05:51:01;;;;;;;0.17;0.17;;;16.70;99.90;;;;;;5093831;28;20099;-87
2023/05/05 05:53:27;;;;;;;0.17;0.17;;;16.70;99.90;;;;;;5094760;28;20073;-86
2023/05/05 05:55:52;;;;;;;0.30;0.30;;;16.70;99.90;;;;;;5094353;28;20372;-87
2023/05/05 05:58:18;;;;;;;0.10;0.10;;;16.80;99.90;;;;;;5093426;28;20044;-86
2023/05/05 06:00:44;;;;;;;0.00;0.00;;;16.90;99.90;;;;;;5093383;28;20123;-87
2023/05/05 06:03:10;;;;;;;0.10;0.10;;;16.90;99.90;;;;;;5094116;28;20020;-86
2023/05/05 06:05:35;;;;;;;0.00;0.00;;;16.80;99.90;;;;;;5094448;28;20028;-86
2023/05/05 06:08:01;;;;;;;0.00;0.00;;;16.80;99.90;;;;;;5093860;28;20032;-85
2023/05/05 06:10:26;;;;;;;0.10;0.10;;;16.80;99.90;;;;;;5093824;28;20035;-85
2023/05/05 06:12:52;;;;;;;0.10;0.10;;;16.90;99.90;;;;;;5093447;28;20020;-86
2023/05/05 06:15:18;;;;;;;0.30;0.25;;;17.00;99.90;;;;;;5093589;28;20111;-85
2023/05/05 06:17:43;;;;;;;0.25;0.25;;;17.20;99.90;;;;;;5094097;28;20028;-86
2023/05/05 06:20:09;;;;;;;0.10;0.10;;;17.30;99.90;;;;;;5093442;28;20125;-86
2023/05/05 06:22:35;;;;;;;0.10;0.10;;;17.40;99.90;;;;;;5093996;28;20119;-90
2023/05/05 06:25:01;;;;;;;0.00;0.00;;;17.50;99.90;;;;;;5095607;28;20524;-91
2023/05/05 06:27:27;;;;;;;0.57;0.30;;;17.70;99.90;;;;;;5094202;28;20027;-91
2023/05/05 06:29:53;;;;;;;0.10;0.10;;;17.70;99.90;;;;;;5093598;28;20388;-90
2023/05/05 06:32:19;;;;;;;0.10;0.10;;;17.70;99.90;;;;;;5095569;28;20024;-92
2023/05/05 06:34:46;;;;;;;0.13;0.13;;;17.90;99.90;;;;;;5095552;28;20047;-91
2023/05/05 06:37:11;;;;;;;0.00;0.00;;;17.90;99.90;;;;;;5096004;28;20035;-90
2023/05/05 06:39:37;;;;;;;0.00;0.00;;;18.10;99.90;;;;;;5093515;28;20027;-87
2023/05/05 06:42:03;;;;;;;0.00;0.00;;;18.20;99.90;;;;;;5093074;28;20480;-87
2023/05/05 06:44:29;;;;;;;0.10;0.10;;;18.30;99.90;;;;;;5094044;28;20050;-87
2023/05/05 06:46:55;;;;;;;0.03;0.03;;;18.40;99.90;;;;;;5093523;28;20035;-87
2023/05/05 06:49:21;;;;;;;0.00;0.00;;;18.50;99.90;;;;;;5093639;28;20024;-87
2023/05/05 06:51:47;;;;;;;0.20;0.20;;;18.50;99.90;;;;;;5092357;28;20028;-87
2023/05/05 06:54:12;;;;;;;0.82;0.82;;;18.50;99.90;;;;;;5093651;28;20499;-87
2023/05/05 06:56:38;;;;;;;0.20;0.20;;;18.60;99.90;;;;;;5091535;28;20117;-86
2023/05/05 06:59:04;;;;;;;0.10;0.10;;;18.60;99.90;;;;;;5093284;28;20027;-87
2023/05/05 07:01:29;;;;;;;0.00;0.00;;;18.70;99.90;;;;;;5093162;28;20040;-87
2023/05/05 07:03:55;;;;;;;0.08;0.08;;;18.80;99.90;;;;;;5094077;28;20027;-88
2023/05/05 07:06:21;;;;;;;0.10;0.10;;;18.80;99.90;;;;;;5093341;28;20052;-88
2023/05/05 07:08:47;;;;;;;0.00;0.00;;;18.90;99.90;;;;;;5093406;28;20128;-88
2023/05/05 07:11:12;;;;;;;0.20;0.20;;;18.90;99.90;;;;;;5092773;28;20024;-87
2023/05/05 07:13:38;;;;;;;0.10;0.10;;;19.00;99.90;;;;;;5092165;28;20081;-87
2023/05/05 07:16:04;;;;;;;0.20;0.20;;;19.10;99.90;;;;;;5093347;28;20024;-87
2023/05/05 07:18:30;;;;;;;0.10;0.10;;;19.20;99.90;;;;;;5092922;28;20070;-87
2023/05/05 07:20:57;;;;;;;0.20;0.20;;;19.30;99.90;;;;;;5092713;28;20044;-87
2023/05/05 07:23:22;;;;;;;0.00;0.00;;;19.30;99.90;;;;;;5093312;28;20078;-87
2023/05/05 07:25:48;;;;;;;0.10;0.10;;;19.40;99.90;;;;;;5091519;28;20085;-87
2023/05/05 07:28:14;;;;;;;0.10;0.10;;;19.50;99.90;;;;;;5093995;28;20024;-95
2023/05/05 07:30:40;;;;;;;0.20;0.20;;;19.70;99.90;;;;;;5095334;28;20034;-87
2023/05/05 07:33:06;;;;;;;0.30;0.30;;;19.90;99.90;;;;;;5093133;28;20107;-87
2023/05/05 07:35:31;;;;;;;0.00;0.00;;;20.00;99.90;;;;;;5093137;28;20510;-87
2023/05/05 07:37:57;;;;;;;0.10;0.10;;;20.10;99.90;;;;;;5091526;28;20127;-87
2023/05/05 07:40:22;;;;;;;0.10;0.10;;;20.20;99.90;;;;;;5092332;28;20036;-87
2023/05/05 07:42:48;;;;;;;0.38;0.38;;;20.30;99.90;;;;;;5091979;28;20392;-87
2023/05/05 07:45:14;;;;;;;0.10;0.10;;;20.40;99.90;;;;;;5092835;28;20032;-87
2023/05/05 07:47:40;;;;;;;0.00;0.00;;;20.60;99.90;;;;;;5091468;28;20020;-87
2023/05/05 07:50:06;;;;;;;0.22;0.22;;;20.60;99.90;;;;;;5092813;28;20376;-87
2023/05/05 07:52:31;;;;;;;0.28;0.28;;;20.60;99.90;;;;;;5093035;28;20032;-87
2023/05/05 07:54:57;;;;;;;0.05;0.05;;;20.60;99.90;;;;;;5092478;28;20028;-87
2023/05/05 07:57:22;;;;;;;0.00;0.00;;;20.60;99.90;;;;;;5092633;28;20020;-87
2023/05/05 07:59:48;;;;;;;0.22;0.22;;;20.50;99.90;;;;;;5092731;28;20431;-87
2023/05/05 08:02:14;;;;;;;0.10;0.10;;;20.50;99.90;;;;;;5093150;28;20024;-87
2023/05/05 08:04:39;;;;;;;0.40;0.38;;;20.60;99.90;;;;;;5092636;28;20122;-87
2023/05/05 08:07:06;;;;;;;1.65;0.80;;;20.80;99.90;;;;;;5091308;28;20081;-86
2023/05/05 08:09:33;;;;;;;0.13;0.13;;;20.80;99.90;;;;;;5091059;28;20028;-87
2023/05/05 08:12:00;;;;;;;0.30;0.30;;;20.80;99.90;;;;;;5090966;28;20031;-87
2023/05/05 08:14:25;;;;;;;0.30;0.30;;;20.80;99.90;;;;;;5092433;28;20124;-87
2023/05/05 08:16:51;;;;;;;0.38;0.38;;;20.90;99.90;;;;;;5092799;28;20051;-88
2023/05/05 08:19:18;;;;;;;0.28;0.28;;;21.00;99.90;;;;;;5092198;28;20411;-87
2023/05/05 08:21:43;;;;;;;0.03;0.03;;;21.00;99.90;;;;;;5092151;28;20519;-87
2023/05/05 08:24:09;;;;;;;0.20;0.20;;;20.90;99.90;;;;;;5095902;28;20020;-87
2023/05/05 08:26:35;;;;;;;0.17;0.17;;;20.70;99.90;;;;;;5096192;28;20028;-87
2023/05/05 08:29:01;;;;;;;0.30;0.30;;;20.80;99.90;;;;;;5095017;28;20020;-87
2023/05/05 08:31:33;;;;;;;0.32;0.32;;;20.90;99.90;;;;;;5096367;28;20062;-87
2023/05/05 08:33:58;;;;;;;0.10;0.10;;;20.90;99.90;;;;;;5094673;28;20016;-87
2023/05/05 08:36:24;;;;;;;0.20;0.20;;;20.80;99.90;;;;;;5096580;28;20035;-87
2023/05/05 08:38:50;;;;;;;0.20;0.20;;;21.10;99.90;;;;;;5095545;28;20024;-87
2023/05/05 08:41:18;;;;;;;0.10;0.10;;;21.00;99.90;;;;;;5095676;28;20040;-87
2023/05/05 08:43:49;;;;;;;0.32;0.32;;;21.20;99.90;;;;;;5096218;28;20107;-87
2023/05/05 08:46:15;;;;;;;0.20;0.15;;;21.30;99.90;;;;;;5095624;28;20024;-88
2023/05/05 08:48:42;;;;;;;0.10;0.10;;;21.20;99.90;;;;;;5094773;28;20032;-87
2023/05/05 08:51:12;;;;;;;0.10;0.10;;;21.20;99.90;;;;;;5095640;28;20396;-87
2023/05/05 08:53:53;;;;;;;0.25;0.25;;;21.10;99.90;;;;;;5095356;28;20036;-87
2023/05/05 08:56:22;;;;;;;0.10;0.10;;;21.10;99.90;;;;;;5096145;28;20479;-87
2023/05/05 08:58:50;;;;;;;0.10;0.10;;;21.30;99.90;;;;;;5095694;28;20206;-86
2023/05/05 09:01:16;;;;;;;0.10;0.10;;;21.20;99.90;;;;;;5095613;28;20579;-87
2023/05/05 09:03:46;;;;;;;0.52;0.52;;;21.20;99.90;;;;;;5095660;28;20024;-87
2023/05/05 09:06:11;;;;;;;0.13;0.13;;;21.10;99.90;;;;;;5095311;28;20092;-87
2023/05/05 09:08:37;;;;;;;0.20;0.20;;;21.30;99.90;;;;;;5095347;28;20032;-87
2023/05/05 09:11:03;;;;;;;0.20;0.20;;;21.40;99.90;;;;;;5095151;28;20031;-87
2023/05/05 09:13:30;;;;;;;0.30;0.10;;;21.40;99.90;;;;;;5095604;28;20028;-87
2023/05/05 09:15:56;;;;;;;0.00;0.00;;;21.50;99.90;;;;;;5095449;28;20031;-87
2023/05/05 09:18:22;;;;;;;0.08;0.08;;;21.50;99.90;;;;;;5093738;28;20060;-87
2023/05/05 09:20:48;;;;;;;0.15;0.13;;;21.60;99.90;;;;;;5094394;28;20081;-87
2023/05/05 09:23:19;;;;;;;2.28;0.50;;;21.60;99.90;;;;;;5095431;28;20050;-86
2023/05/05 09:26:04;;;;;;;0.10;0.10;;;21.50;99.90;;;;;;5093767;28;20020;-87
2023/05/05 09:28:30;;;;;;;0.13;0.13;;;21.70;99.90;;;;;;5094854;28;20032;-87
2023/05/05 09:31:11;;;;;;;0.10;0.10;;;21.80;99.90;;;;;;5095841;28;20027;-87
2023/05/05 09:33:37;;;;;;;0.20;0.20;;;21.80;99.90;;;;;;5094843;28;20028;-86
2023/05/05 09:36:03;;;;;;;0.00;0.00;;;21.70;99.90;;;;;;5094697;28;20399;-87
2023/05/05 09:38:28;;;;;;;0.10;0.10;;;21.60;99.90;;;;;;5094909;28;20034;-87
2023/05/05 09:40:54;;;;;;;0.10;0.10;;;21.60;99.90;;;;;;5094647;28;20040;-87
2023/05/05 09:43:23;;;;;;;0.00;0.00;;;21.70;99.90;;;;;;5094775;28;20086;-86
2023/05/05 09:45:49;;;;;;;0.10;0.10;;;21.70;99.90;;;;;;5093166;28;20451;-87
2023/05/05 09:48:29;;;;;;;0.00;0.00;;;21.80;99.90;;;;;;5094555;28;20028;-87
2023/05/05 09:50:56;;;;;;;0.20;0.20;;;21.80;99.90;;;;;;5094038;28;20059;-87
2023/05/05 09:53:23;;;;;;;0.35;0.30;;;21.90;99.90;;;;;;5094882;28;20035;-87
2023/05/05 09:55:57;;;;;;;0.47;0.28;;;22.20;99.90;;;;;;5094815;28;20020;-86
2023/05/05 09:58:29;;;;;;;0.13;0.13;;;22.20;99.90;;;;;;5094620;28;20028;-87
2023/05/05 10:00:56;;;;;;;0.50;0.50;;;22.30;99.90;;;;;;5094267;28;20119;-87
2023/05/05 10:03:23;;;;;;;0.32;0.32;;;22.30;99.90;;;;;;5094104;28;20027;-86
2023/05/05 10:05:54;;;;;;;0.10;0.10;;;22.40;99.90;;;;;;5093705;28;20032;-87
2023/05/05 10:08:25;;;;;;;0.10;0.10;;;22.20;99.90;;;;;;5092968;28;20023;-86
2023/05/05 10:10:57;;;;;;;0.20;0.20;;;22.40;99.90;;;;;;5093970;28;20047;-87
2023/05/05 10:13:23;;;;;;;0.00;0.00;;;22.30;99.90;;;;;;5094310;28;20024;-86
2023/05/05 10:15:51;;;;;;;0.03;0.03;;;22.20;99.90;;;;;;5093960;28;20388;-87
2023/05/05 10:18:21;;;;;;;0.03;0.03;;;22.30;99.90;;;;;;5093932;28;20024;-87
2023/05/05 10:20:58;;;;;;;0.00;0.00;;;22.60;99.90;;;;;;5094181;28;20040;-87
2023/05/05 10:23:36;;;;;;;0.20;0.20;;;22.40;99.90;;;;;;5093985;28;20024;-87
2023/05/05 10:26:05;;;;;;;0.35;0.35;;;22.60;99.90;;;;;;5093818;28;20028;-87
2023/05/05 10:28:35;;;;;;;0.10;0.10;;;22.70;99.90;;;;;;5093743;28;20027;-87
2023/05/05 10:31:04;;;;;;;0.22;0.22;;;22.90;99.90;;;;;;5093574;28;20395;-87
2023/05/05 10:33:51;;;;;;;0.10;0.10;;;23.00;99.90;;;;;;5095029;28;20050;-87
2023/05/05 10:36:19;;;;;;;0.20;0.20;;;23.20;99.90;;;;;;5093824;28;20483;-87
2023/05/05 10:38:45;;;;;;;0.15;0.15;;;23.10;99.90;;;;;;5093497;28;20036;-87
2023/05/05 10:41:13;;;;;;;0.10;0.10;;;23.10;99.90;;;;;;5093664;28;20555;-87
2023/05/05 10:43:39;;;;;;;0.20;0.20;;;23.20;99.90;;;;;;5093661;28;20361;-87
2023/05/05 10:46:06;;;;;;;0.20;0.20;;;23.40;99.90;;;;;;5091524;28;20844;-87
2023/05/05 10:49:01;;;;;;;0.28;0.28;;;23.10;99.90;;;;;;5093329;28;20024;-87
2023/05/05 10:51:43;;;;;;;0.00;0.00;;;23.20;99.90;;;;;;5050661;28;20167;-87
2023/05/05 10:54:52;;;;;;;0.20;0.20;;;23.20;99.90;;;;;;5051020;28;20028;-86
2023/05/05 10:57:22;;;;;;;1.63;0.30;;;23.30;99.90;;;;;;4959222;28;20035;-86
2023/05/05 10:59:48;;;;;;;0.05;0.05;;;23.10;99.90;;;;;;4972006;28;20550;-86
2023/05/05 11:02:27;;;;;;;0.10;0.10;;;23.10;99.90;;;;;;4971472;28;20110;-87
2023/05/05 11:05:09;;;;;;;0.08;0.08;;;23.20;99.90;;;;;;4972477;28;20094;-86
2023/05/05 11:07:36;;;;;;;2.05;0.43;;;23.10;99.90;;;;;;4971875;28;20034;-87
2023/05/05 11:10:06;;;;;;;0.20;0.20;;;23.20;99.90;;;;;;4972226;28;20030;-87
2023/05/05 11:12:53;;;;;;;0.00;0.00;;;23.20;99.90;;;;;;4971892;28;20030;-87
2023/05/05 11:15:29;;;;;;;0.25;0.25;;;23.80;99.90;;;;;;4971680;28;20035;-87
2023/05/05 11:18:00;;;;;;;0.30;0.30;;;23.80;99.90;;;;;;4971270;28;20038;-87
2023/05/05 11:20:34;;;;;;;0.40;0.40;;;23.90;99.90;;;;;;4952558;28;20179;-87
2023/05/05 11:23:03;;;;;;;0.10;0.10;;;24.40;99.90;;;;;;4952257;29;20034;-87
2023/05/05 11:25:42;;;;;;;0.35;0.20;;;24.70;99.90;;;;;;4952614;29;20027;-87
2023/05/05 11:28:12;;;;;;;0.40;0.40;;;25.30;99.90;;;;;;4976439;28;20402;-87
2023/05/05 11:30:56;;;;;;;0.10;0.10;;;25.60;99.90;;;;;;4991146;28;20037;-87
2023/05/05 11:33:37;;;;;;;0.38;0.20;;;26.00;99.90;;;;;;5001756;28;20057;-88
2023/05/05 11:36:11;;;;;;;0.03;0.03;;;26.30;99.90;;;;;;5048034;28;20025;-87
2023/05/05 11:39:08;;;;;;;0.10;0.10;;;26.10;99.90;;;;;;5032725;28;20034;-87
2023/05/05 11:41:45;;;;;;;0.10;0.10;;;26.70;99.90;;;;;;5032695;28;20124;-87
2023/05/05 11:44:12;;;;;;;0.40;0.32;;;26.80;99.90;;;;;;5032890;28;20028;-87
2023/05/05 11:47:04;;;;;;;0.65;0.20;;;26.80;99.90;;;;;;5038674;28;20033;-87
2023/05/05 11:49:30;;;;;;;0.10;0.10;;;27.70;99.90;;;;;;5053368;28;20051;-87
2023/05/05 11:52:14;;;;;;;0.00;0.00;;;27.50;99.90;;;;;;5070222;28;20492;-88
2023/05/05 11:54:47;;;;;;;0.10;0.10;;;27.60;99.90;;;;;;5070262;28;20048;-88
2023/05/05 11:57:14;;;;;;;1.08;0.52;;;28.30;99.90;;;;;;5072453;28;20028;-88
2023/05/05 12:00:03;;;;;;;0.00;0.00;;;28.90;99.90;;;;;;5074602;28;20063;-87
2023/05/05 12:02:30;;;;;;;2.85;0.75;;;29.00;99.90;;;;;;5073907;28;20035;-86
2023/05/05 12:04:57;;;;;;;0.00;0.00;;;28.70;99.90;;;;;;5074160;28;20032;-87
2023/05/05 12:07:30;;;;;;;0.10;0.10;;;29.10;99.90;;;;;;5074405;28;20029;-88
2023/05/05 12:09:56;;;;;;;0.17;0.17;;;30.00;99.90;;;;;;5073999;28;20068;-88
2023/05/05 12:12:37;;;;;;;0.10;0.10;;;30.70;99.90;;;;;;5073847;28;20389;-87
2023/05/05 12:15:03;;;;;;;0.10;0.10;;;31.10;99.90;;;;;;5073403;28;20028;-88
2023/05/05 12:17:36;;;;;;;0.20;0.00;;;30.30;99.90;;;;;;5073636;28;20024;-88
2023/05/05 12:20:02;;;;;;;0.00;0.00;;;29.20;99.90;;;;;;5090416;28;20529;-87
2023/05/05 12:22:28;;;;;;;0.47;0.32;;;29.40;99.90;;;;;;5093958;28;20055;-88
2023/05/05 12:24:57;;;;;;;0.03;0.03;;;29.40;99.90;;;;;;5094142;28;20070;-87
2023/05/05 12:27:24;;;;;;;0.10;0.10;;;29.80;99.90;;;;;;5059741;28;20040;-88
2023/05/05 12:29:50;;;;;;;0.00;0.00;;;29.70;99.90;;;;;;5055972;28;20082;-87
2023/05/05 12:32:20;;;;;;;0.00;0.00;;;30.60;99.90;;;;;;5055920;28;20389;-88
2023/05/05 12:34:47;;;;;;;0.22;0.20;;;29.70;99.90;;;;;;5055816;28;20021;-88
2023/05/05 12:37:15;;;;;;;1.75;0.60;;;28.90;99.90;;;;;;5055929;28;20029;-88
2023/05/05 12:39:40;;;;;;;0.43;0.10;;;29.10;99.90;;;;;;5055933;28;20562;-88
2023/05/05 12:42:06;;;;;;;0.10;0.10;;;29.30;99.90;;;;;;5055227;28;20033;-88
2023/05/05 12:44:36;;;;;;;0.10;0.10;;;30.50;99.90;;;;;;5055153;28;20025;-88
2023/05/05 12:47:01;;;;;;;3.95;0.13;;;30.20;99.90;;;;;;5065568;28;20437;-88
2023/05/05 12:49:27;;;;;;;0.00;0.00;;;29.70;99.90;;;;;;5075553;28;20048;-87
2023/05/05 12:51:54;;;;;;;0.05;0.05;;;29.70;99.90;;;;;;5075686;28;20098;-88
2023/05/05 12:54:22;;;;;;;0.00;0.00;;;30.30;99.90;;;;;;5075616;28;20025;-88
2023/05/05 12:56:48;;;;;;;0.00;0.00;;;30.90;99.90;;;;;;5075430;28;20036;-88